Time;durP1;ratioP1;P1;durP2;ratioP2;P2;SDS_P1;SDS_P2;PMS_P1;PMS_P2;Temp;Humidity;BMP_temperature;BMP_pressure;BME280_temperature;BME280_humidity;BME280_pressure;Samples;Min_cycle;Max_cycle;Signal;HPM_P1;HPM_P2
2022/10/12 00:00:04;;;;;;;49.72;29.08;;;13.70;89.30;;;;;;5050954;28;20025;-77
2022/10/12 00:02:30;;;;;;;47.15;26.58;;;13.70;89.20;;;;;;5050856;28;20021;-77
2022/10/12 00:04:55;;;;;;;39.28;26.27;;;13.70;90.00;;;;;;5050819;28;20072;-76
2022/10/12 00:07:21;;;;;;;39.22;24.05;;;13.70;89.20;;;;;;5051139;28;20120;-76
2022/10/12 00:09:47;;;;;;;47.90;30.08;;;13.70;89.00;;;;;;5050919;28;20034;-76
2022/10/12 00:12:12;;;;;;;49.13;31.55;;;13.70;89.00;;;;;;5050848;28;20419;-76
2022/10/12 00:14:38;;;;;;;43.28;27.50;;;13.70;88.90;;;;;;5050725;28;20485;-77
2022/10/12 00:17:03;;;;;;;49.30;30.38;;;13.70;88.90;;;;;;5050915;28;20064;-76
2022/10/12 00:19:29;;;;;;;46.75;29.88;;;13.70;89.10;;;;;;5050261;28;20032;-77
2022/10/12 00:21:55;;;;;;;52.67;31.65;;;13.60;89.10;;;;;;5050041;28;20033;-77
2022/10/12 00:24:20;;;;;;;46.65;27.80;;;13.70;89.30;;;;;;5033998;28;20105;-77
2022/10/12 00:26:49;;;;;;;41.97;27.00;;;13.60;89.20;;;;;;5050629;28;20026;-77
2022/10/12 00:29:14;;;;;;;51.22;28.60;;;13.60;89.30;;;;;;5050382;28;20021;-77
2022/10/12 00:31:40;;;;;;;47.33;29.60;;;13.60;89.30;;;;;;5050810;28;20033;-77
2022/10/12 00:34:06;;;;;;;58.85;35.63;;;13.70;89.40;;;;;;5050122;28;20052;-76
2022/10/12 00:36:34;;;;;;;65.28;33.30;;;13.70;89.40;;;;;;5050373;28;20108;-77
2022/10/12 00:39:02;;;;;;;52.25;32.45;;;13.60;89.30;;;;;;5050417;28;20449;-76
2022/10/12 00:41:34;;;;;;;55.30;30.95;;;13.60;89.60;;;;;;5050478;28;20069;-76
2022/10/12 00:44:00;;;;;;;52.28;30.45;;;13.50;89.60;;;;;;5050275;28;20032;-76
2022/10/12 00:46:34;;;;;;;46.83;28.92;;;13.60;89.60;;;;;;5050356;28;20378;-76
2022/10/12 00:49:19;;;;;;;49.85;28.98;;;13.60;89.60;;;;;;5050213;28;20029;-76
2022/10/12 00:51:49;;;;;;;47.30;28.17;;;13.60;89.60;;;;;;5050156;28;20047;-76
2022/10/12 00:54:20;;;;;;;56.05;32.35;;;13.60;89.40;;;;;;5049895;28;20421;-76
2022/10/12 00:56:47;;;;;;;47.67;29.17;;;13.60;89.40;;;;;;5049602;28;20021;-76
2022/10/12 00:59:27;;;;;;;40.85;26.13;;;13.50;90.30;;;;;;5050109;28;20021;-75
2022/10/12 01:01:53;;;;;;;61.80;34.88;;;13.60;90.40;;;;;;5049893;28;20092;-77
2022/10/12 01:04:21;;;;;;;61.97;36.38;;;13.50;89.50;;;;;;5049920;28;20366;-76
2022/10/12 01:06:46;;;;;;;57.53;33.05;;;13.40;89.70;;;;;;5049690;28;20474;-76
2022/10/12 01:09:13;;;;;;;59.53;32.75;;;13.40;90.00;;;;;;5048909;28;20025;-76
2022/10/12 01:11:39;;;;;;;55.28;33.10;;;13.40;89.90;;;;;;5049898;28;20048;-76
2022/10/12 01:14:04;;;;;;;62.70;33.50;;;13.40;90.00;;;;;;5049932;28;20108;-77
2022/10/12 01:16:39;;;;;;;51.65;31.58;;;13.40;89.90;;;;;;5050073;28;20024;-77
2022/10/12 01:19:37;;;;;;;45.03;28.13;;;13.40;89.80;;;;;;5049825;28;20029;-77
2022/10/12 01:22:07;;;;;;;43.60;27.83;;;13.40;89.80;;;;;;5033176;28;20128;-77
2022/10/12 01:24:52;;;;;;;74.38;37.10;;;13.40;89.90;;;;;;5049662;28;20072;-77
2022/10/12 01:27:48;;;;;;;55.00;35.00;;;13.40;90.80;;;;;;5042337;28;20033;-77
2022/10/12 01:30:24;;;;;;;56.28;33.55;;;13.40;90.00;;;;;;5031385;28;20030;-77
2022/10/12 01:33:09;;;;;;;52.75;32.78;;;13.40;90.20;;;;;;5032445;28;20037;-77
2022/10/12 01:36:04;;;;;;;61.17;35.78;;;13.40;90.20;;;;;;5032466;28;20021;-77
2022/10/12 01:38:36;;;;;;;46.63;28.92;;;13.40;90.10;;;;;;5032886;28;20029;-77
2022/10/12 01:41:27;;;;;;;47.45;28.95;;;13.40;90.10;;;;;;5032175;28;20040;-77
2022/10/12 01:43:52;;;;;;;51.83;29.65;;;13.50;90.00;;;;;;5032399;28;20022;-77
2022/10/12 01:46:18;;;;;;;46.53;27.20;;;13.50;89.90;;;;;;5032383;28;20025;-77
2022/10/12 01:48:48;;;;;;;41.47;26.08;;;13.50;89.70;;;;;;5032742;28;20025;-77
2022/10/12 01:51:50;;;;;;;41.13;27.65;;;13.50;89.60;;;;;;5032610;28;20029;-77
2022/10/12 01:54:21;;;;;;;42.33;28.30;;;13.50;89.60;;;;;;5032761;28;20029;-76
2022/10/12 01:57:07;;;;;;;49.95;30.38;;;13.60;89.50;;;;;;5032325;28;20478;-76
2022/10/12 02:00:08;;;;;;;50.40;28.75;;;13.60;89.30;;;;;;5032569;28;20355;-77
2022/10/12 02:02:40;;;;;;;45.45;28.55;;;13.50;89.50;;;;;;5032028;28;20446;-77
2022/10/12 02:05:25;;;;;;;42.75;25.85;;;13.60;89.50;;;;;;5031980;28;20547;-77
2022/10/12 02:08:00;;;;;;;41.75;25.30;;;13.60;89.40;;;;;;5032141;28;20103;-76
2022/10/12 02:10:39;;;;;;;53.53;31.50;;;13.60;89.30;;;;;;5031818;28;20033;-76
2022/10/12 02:13:08;;;;;;;54.20;31.02;;;13.60;89.10;;;;;;5032073;28;20025;-77
2022/10/12 02:15:37;;;;;;;49.28;29.17;;;13.50;89.20;;;;;;5031746;28;20022;-76
2022/10/12 02:18:04;;;;;;;59.28;35.00;;;13.50;90.10;;;;;;5032281;28;20443;-77
2022/10/12 02:20:31;;;;;;;60.60;33.40;;;13.50;89.40;;;;;;5031639;28;20029;-77
2022/10/12 02:22:58;;;;;;;59.33;34.85;;;13.50;89.50;;;;;;5032004;28;20049;-77
2022/10/12 02:25:26;;;;;;;55.42;34.35;;;13.50;89.80;;;;;;5031863;28;20025;-76
2022/10/12 02:28:01;;;;;;;49.13;29.50;;;13.40;89.70;;;;;;5031707;28;20552;-77
2022/10/12 02:30:28;;;;;;;44.38;28.17;;;13.30;90.00;;;;;;5031577;28;20026;-76
2022/10/12 02:32:53;;;;;;;51.67;29.23;;;13.40;90.00;;;;;;5031836;28;20026;-76
2022/10/12 02:35:48;;;;;;;44.92;26.13;;;13.40;89.80;;;;;;5031912;28;20028;-76
2022/10/12 02:38:37;;;;;;;39.13;21.20;;;13.40;89.50;;;;;;5031510;28;20440;-76
2022/10/12 02:41:16;;;;;;;35.00;20.60;;;13.40;89.20;;;;;;5030736;28;20069;-76
2022/10/12 02:43:51;;;;;;;39.20;22.80;;;13.50;88.90;;;;;;5032025;28;20025;-76
2022/10/12 02:46:19;;;;;;;47.22;27.90;;;13.50;88.90;;;;;;5031876;28;20075;-76
2022/10/12 02:48:46;;;;;;;47.88;27.85;;;13.50;88.70;;;;;;5031538;28;20117;-76
2022/10/12 02:51:12;;;;;;;53.05;28.30;;;13.50;88.80;;;;;;5031662;28;20386;-76
2022/10/12 02:53:39;;;;;;;47.63;26.23;;;13.50;88.80;;;;;;5031790;28;20112;-76
2022/10/12 02:56:10;;;;;;;41.10;25.33;;;13.60;88.80;;;;;;5031635;28;20434;-76
2022/10/12 02:58:36;;;;;;;39.78;25.35;;;13.60;88.80;;;;;;5031398;28;20018;-77
2022/10/12 03:01:02;;;;;;;34.30;21.65;;;13.60;88.80;;;;;;5031455;28;20026;-77
2022/10/12 03:03:27;;;;;;;48.33;26.60;;;13.60;88.90;;;;;;5031846;28;20030;-76
2022/10/12 03:05:53;;;;;;;46.10;26.17;;;13.60;88.90;;;;;;5031616;28;20030;-77
2022/10/12 03:08:20;;;;;;;39.42;23.20;;;13.70;88.80;;;;;;5031826;28;20076;-77
2022/10/12 03:10:47;;;;;;;37.60;23.30;;;13.70;88.80;;;;;;5031765;28;20049;-77
2022/10/12 03:13:13;;;;;;;41.67;23.67;;;13.60;88.70;;;;;;5031486;28;20029;-77
2022/10/12 03:15:40;;;;;;;37.28;24.38;;;13.60;88.60;;;;;;5031700;28;20030;-77
2022/10/12 03:18:05;;;;;;;34.88;22.83;;;13.60;88.50;;;;;;5031572;28;20021;-77
2022/10/12 03:20:31;;;;;;;30.73;20.13;;;13.70;88.50;;;;;;5031219;28;20474;-77
2022/10/12 03:22:56;;;;;;;33.80;20.77;;;13.70;88.40;;;;;;5031267;28;20049;-77
2022/10/12 03:25:22;;;;;;;36.58;21.38;;;13.70;88.10;;;;;;5031364;28;20021;-76
2022/10/12 03:27:47;;;;;;;34.47;19.70;;;13.70;87.90;;;;;;5031444;28;20032;-76
2022/10/12 03:30:14;;;;;;;29.42;18.15;;;13.70;88.00;;;;;;5030978;28;20087;-76
2022/10/12 03:32:39;;;;;;;32.50;18.98;;;13.70;87.70;;;;;;5032313;28;20394;-76
2022/10/12 03:35:06;;;;;;;30.10;17.40;;;13.70;87.50;;;;;;5034505;28;20025;-77
2022/10/12 03:37:31;;;;;;;28.35;16.80;;;13.70;87.30;;;;;;5034867;28;20029;-77
2022/10/12 03:39:57;;;;;;;32.72;17.85;;;13.80;87.90;;;;;;5034724;28;20048;-77
2022/10/12 03:42:22;;;;;;;29.65;18.38;;;13.80;87.00;;;;;;5034618;28;20551;-77
2022/10/12 03:44:48;;;;;;;28.33;18.25;;;13.80;86.90;;;;;;5034716;28;20036;-77
2022/10/12 03:47:14;;;;;;;37.75;20.35;;;13.80;87.00;;;;;;5035681;28;20096;-77
2022/10/12 03:49:39;;;;;;;28.45;17.88;;;13.80;87.10;;;;;;5034328;28;20022;-77
2022/10/12 03:52:05;;;;;;;27.15;17.02;;;13.80;87.20;;;;;;5034850;28;20032;-77
2022/10/12 03:54:30;;;;;;;28.48;18.15;;;13.80;87.20;;;;;;5034674;28;20026;-77
2022/10/12 03:56:56;;;;;;;29.90;18.80;;;13.80;87.30;;;;;;5034462;28;20428;-77
2022/10/12 03:59:22;;;;;;;38.70;22.77;;;13.80;87.20;;;;;;5034032;28;20120;-77
2022/10/12 04:01:47;;;;;;;46.65;26.92;;;13.80;87.00;;;;;;5034103;28;20482;-77
2022/10/12 04:04:13;;;;;;;39.53;22.23;;;13.80;87.00;;;;;;5034361;28;20022;-77
2022/10/12 04:06:38;;;;;;;49.97;25.10;;;13.70;87.20;;;;;;5034395;28;20033;-77
2022/10/12 04:09:04;;;;;;;34.90;21.73;;;13.60;87.10;;;;;;5033893;28;20025;-76
2022/10/12 04:11:30;;;;;;;28.88;18.35;;;13.60;87.30;;;;;;5034185;28;20096;-77
2022/10/12 04:13:55;;;;;;;31.67;18.05;;;13.60;87.20;;;;;;5034013;28;20116;-76
2022/10/12 04:16:21;;;;;;;28.10;16.25;;;13.60;87.20;;;;;;5034165;28;20044;-76
2022/10/12 04:18:46;;;;;;;31.10;16.05;;;13.60;87.10;;;;;;5034100;28;20018;-76
2022/10/12 04:21:15;;;;;;;24.38;14.18;;;13.60;86.90;;;;;;5033959;28;20073;-77
2022/10/12 04:23:41;;;;;;;23.52;12.70;;;13.70;86.70;;;;;;5034850;28;20046;-77
2022/10/12 04:26:08;;;;;;;21.27;12.20;;;13.70;86.30;;;;;;5033899;28;20026;-77
2022/10/12 04:28:33;;;;;;;20.48;11.70;;;13.60;85.10;;;;;;5033396;28;20099;-77
2022/10/12 04:30:59;;;;;;;17.30;11.38;;;13.60;85.40;;;;;;5033515;28;20084;-76
2022/10/12 04:33:25;;;;;;;24.92;13.05;;;13.60;85.40;;;;;;5034089;28;20470;-76
2022/10/12 04:35:50;;;;;;;23.50;14.32;;;13.70;85.60;;;;;;5033949;28;20460;-76
2022/10/12 04:38:16;;;;;;;23.35;15.10;;;13.70;85.80;;;;;;5033839;28;20120;-76
2022/10/12 04:40:46;;;;;;;26.33;14.98;;;13.70;86.00;;;;;;5033738;28;20029;-77
2022/10/12 04:43:13;;;;;;;26.30;15.43;;;13.70;86.30;;;;;;5034725;28;20028;-76
2022/10/12 04:45:38;;;;;;;23.98;15.15;;;13.70;86.40;;;;;;5033699;28;20028;-76
2022/10/12 04:48:04;;;;;;;21.63;14.32;;;13.70;86.40;;;;;;5033657;28;20033;-77
2022/10/12 04:50:30;;;;;;;26.92;15.75;;;13.70;86.30;;;;;;5034635;28;20031;-77
2022/10/12 04:52:55;;;;;;;26.30;16.38;;;13.70;86.30;;;;;;5033298;28;20470;-77
2022/10/12 04:55:21;;;;;;;25.92;14.88;;;13.70;87.20;;;;;;5033866;28;20057;-77
2022/10/12 04:57:48;;;;;;;29.25;15.77;;;13.70;86.40;;;;;;5033826;28;20044;-77
2022/10/12 05:00:15;;;;;;;23.30;15.00;;;13.70;86.10;;;;;;5033108;28;20071;-77
2022/10/12 05:02:40;;;;;;;29.35;15.02;;;13.60;85.70;;;;;;5033586;28;20079;-78
2022/10/12 05:05:06;;;;;;;20.85;14.93;;;13.60;85.20;;;;;;5033541;28;20029;-77
2022/10/12 05:07:32;;;;;;;20.70;14.02;;;13.60;84.90;;;;;;5033432;28;20029;-78
2022/10/12 05:09:58;;;;;;;27.88;14.65;;;13.50;85.00;;;;;;5033177;28;20025;-78
2022/10/12 05:12:23;;;;;;;21.58;13.18;;;13.50;85.00;;;;;;5033089;28;20025;-78
2022/10/12 05:14:50;;;;;;;24.45;14.02;;;13.40;84.80;;;;;;5016434;28;20045;-78
2022/10/12 05:17:15;;;;;;;26.10;14.88;;;13.40;84.50;;;;;;5032177;28;20120;-78
2022/10/12 05:19:41;;;;;;;27.02;15.60;;;13.40;84.80;;;;;;5032995;28;20061;-79
2022/10/12 05:22:12;;;;;;;30.23;14.88;;;13.40;84.90;;;;;;5032772;28;20029;-78
2022/10/12 05:24:38;;;;;;;26.98;13.77;;;13.30;85.40;;;;;;5032564;28;20026;-77
2022/10/12 05:27:04;;;;;;;26.15;15.13;;;13.20;85.70;;;;;;5032391;28;20021;-77
2022/10/12 05:29:29;;;;;;;24.95;14.32;;;13.20;85.50;;;;;;5032205;28;20115;-76
2022/10/12 05:31:55;;;;;;;21.58;14.70;;;13.20;85.40;;;;;;5032278;28;20466;-77
2022/10/12 05:34:20;;;;;;;28.38;15.50;;;13.20;85.30;;;;;;5031414;28;20127;-77
2022/10/12 05:36:46;;;;;;;23.77;14.23;;;13.20;85.20;;;;;;5032035;28;20025;-78
2022/10/12 05:39:12;;;;;;;23.27;13.85;;;13.30;85.10;;;;;;5031933;28;20029;-78
2022/10/12 05:41:38;;;;;;;24.30;13.30;;;13.30;85.20;;;;;;5032388;28;20040;-78
2022/10/12 05:44:04;;;;;;;24.58;14.43;;;13.40;85.20;;;;;;5032459;28;20026;-77
2022/10/12 05:46:29;;;;;;;21.70;12.07;;;13.40;85.00;;;;;;5032465;28;20084;-77
2022/10/12 05:48:55;;;;;;;18.85;11.65;;;13.40;84.80;;;;;;5033187;28;20025;-77
2022/10/12 05:51:20;;;;;;;21.73;13.02;;;13.40;84.90;;;;;;5033369;28;20033;-77
2022/10/12 05:53:46;;;;;;;21.23;12.63;;;13.40;84.90;;;;;;5032324;28;20026;-77
2022/10/12 05:56:12;;;;;;;19.52;12.25;;;13.50;84.80;;;;;;5031356;28;20517;-78
2022/10/12 05:58:37;;;;;;;22.30;14.15;;;13.50;84.70;;;;;;5032244;28;20443;-78
2022/10/12 06:01:08;;;;;;;22.60;13.02;;;13.60;84.70;;;;;;5031920;28;20025;-77
2022/10/12 06:03:34;;;;;;;25.65;15.73;;;13.50;84.60;;;;;;5032143;28;20389;-78
2022/10/12 06:05:59;;;;;;;26.55;14.20;;;13.50;85.40;;;;;;5031770;28;20025;-76
2022/10/12 06:08:25;;;;;;;22.67;13.50;;;13.50;84.50;;;;;;5031873;28;20026;-77
2022/10/12 06:10:52;;;;;;;24.13;13.05;;;13.60;84.70;;;;;;5032865;28;20025;-77
2022/10/12 06:13:18;;;;;;;19.90;12.57;;;13.60;84.70;;;;;;5031517;28;20102;-78
2022/10/12 06:15:45;;;;;;;16.08;11.10;;;13.70;84.60;;;;;;5032891;28;20076;-78
2022/10/12 06:18:11;;;;;;;23.23;14.88;;;13.70;84.30;;;;;;5031840;28;20074;-78
2022/10/12 06:20:37;;;;;;;23.33;14.27;;;13.80;83.70;;;;;;5031149;28;20039;-78
2022/10/12 06:23:03;;;;;;;23.52;14.55;;;13.70;83.60;;;;;;5032550;28;20128;-79
2022/10/12 06:25:28;;;;;;;27.83;15.77;;;13.80;83.50;;;;;;5031769;28;20029;-79
2022/10/12 06:27:54;;;;;;;20.92;12.63;;;13.80;83.50;;;;;;5031478;28;20025;-79
2022/10/12 06:30:20;;;;;;;20.10;12.55;;;13.80;83.60;;;;;;5031638;28;20039;-79
2022/10/12 06:32:46;;;;;;;23.73;14.18;;;13.80;83.60;;;;;;5031836;28;20021;-77
2022/10/12 06:35:11;;;;;;;21.00;12.75;;;13.80;83.60;;;;;;5033017;28;20496;-77
2022/10/12 06:37:37;;;;;;;22.35;13.00;;;13.90;84.30;;;;;;5031147;28;20075;-78
2022/10/12 06:40:04;;;;;;;27.95;13.35;;;13.90;83.20;;;;;;5031249;28;20021;-78
2022/10/12 06:42:30;;;;;;;23.10;12.35;;;13.90;82.80;;;;;;5031377;28;20069;-78
2022/10/12 06:44:56;;;;;;;23.67;13.02;;;13.80;82.70;;;;;;5031661;28;20052;-78
2022/10/12 06:47:22;;;;;;;22.52;11.50;;;13.70;82.80;;;;;;5031054;28;20033;-78
2022/10/12 06:49:47;;;;;;;19.48;11.45;;;13.70;83.00;;;;;;5031192;28;20119;-79
2022/10/12 06:52:13;;;;;;;20.35;11.50;;;13.70;82.80;;;;;;5031305;28;20072;-78
2022/10/12 06:54:40;;;;;;;22.98;13.63;;;13.70;83.60;;;;;;5031161;28;20032;-78
2022/10/12 06:57:06;;;;;;;23.50;13.02;;;13.70;82.50;;;;;;5032623;28;20075;-78
2022/10/12 06:59:32;;;;;;;20.27;12.25;;;13.70;82.60;;;;;;5014702;28;20076;-78
2022/10/12 07:01:58;;;;;;;23.90;13.80;;;13.70;82.70;;;;;;5031007;28;20064;-78
2022/10/12 07:04:23;;;;;;;20.48;10.93;;;13.70;82.50;;;;;;5030917;28;20022;-78
2022/10/12 07:06:49;;;;;;;18.25;10.70;;;13.70;82.50;;;;;;5030965;28;20039;-77
2022/10/12 07:09:16;;;;;;;15.98;9.50;;;13.70;82.60;;;;;;5034946;28;20022;-77
2022/10/12 07:11:41;;;;;;;17.40;10.15;;;13.80;82.50;;;;;;5035642;28;20037;-82
2022/10/12 07:14:07;;;;;;;17.27;9.93;;;13.90;82.30;;;;;;5051716;28;20442;-79
2022/10/12 07:16:33;;;;;;;14.80;8.90;;;14.00;82.70;;;;;;5034870;28;20029;-78
2022/10/12 07:18:58;;;;;;;15.25;10.10;;;14.10;82.80;;;;;;5034889;28;20021;-78
2022/10/12 07:21:25;;;;;;;15.65;10.35;;;14.20;82.30;;;;;;5035963;28;20034;-78
2022/10/12 07:23:52;;;;;;;20.80;10.85;;;14.30;81.60;;;;;;5035458;28;20523;-79
2022/10/12 07:26:17;;;;;;;15.57;9.45;;;14.30;80.70;;;;;;5035081;28;20486;-80
2022/10/12 07:28:43;;;;;;;11.98;8.30;;;14.30;80.60;;;;;;5035133;28;20040;-80
2022/10/12 07:31:09;;;;;;;15.07;8.80;;;14.30;80.70;;;;;;5035126;28;20097;-82
2022/10/12 07:33:40;;;;;;;29.63;10.52;;;14.40;80.50;;;;;;5052979;28;20087;-87
2022/10/12 07:36:06;;;;;;;18.38;10.15;;;14.50;83.20;;;;;;5054123;28;20411;-86
2022/10/12 07:38:33;;;;;;;14.32;8.02;;;14.70;82.70;;;;;;5037999;28;20432;-86
2022/10/12 07:41:26;;;;;;;16.92;9.60;;;14.80;79.00;;;;;;5036609;28;20410;-89
2022/10/12 07:44:11;;;;;;;20.67;13.13;;;14.70;78.60;;;;;;5035471;28;20044;-88
2022/10/12 07:47:41;;;;;;;17.35;10.40;;;14.70;77.60;;;;;;5036261;28;20028;-91
2022/10/12 07:54:51;;;;;;;13.63;8.05;;;14.70;77.80;;;;;;5031501;28;20032;-90
2022/10/12 07:58:28;;;;;;;15.52;8.73;;;14.70;78.30;;;;;;4971375;28;20031;-91
2022/10/12 08:01:57;;;;;;;16.43;7.93;;;14.80;77.80;;;;;;4955995;29;20155;-91
2022/10/12 08:05:24;;;;;;;14.50;8.43;;;14.80;77.80;;;;;;4902873;29;20044;-87
2022/10/12 08:09:04;;;;;;;12.07;7.07;;;14.90;77.70;;;;;;4919525;29;20024;-85
2022/10/12 08:12:24;;;;;;;14.02;7.45;;;15.10;76.70;;;;;;4918627;29;20508;-84
2022/10/12 08:20:22;;;;;;;11.52;7.85;;;15.20;76.30;;;;;;4825407;29;20029;-89
2022/10/12 08:26:46;;;;;;;14.25;7.95;;;15.60;75.60;;;;;;4798413;29;20204;-79
2022/10/12 08:29:11;;;;;;;13.43;7.65;;;15.70;74.00;;;;;;4790047;29;20047;-77
2022/10/12 08:31:38;;;;;;;11.65;7.32;;;15.70;74.20;;;;;;4859514;29;20080;-76
2022/10/12 08:34:03;;;;;;;12.05;7.35;;;15.60;74.40;;;;;;4859723;29;20033;-77
2022/10/12 08:36:29;;;;;;;10.05;6.75;;;15.60;74.80;;;;;;4859479;29;20037;-75
2022/10/12 08:38:55;;;;;;;14.05;8.20;;;15.60;75.00;;;;;;4869686;29;20131;-76
2022/10/12 08:41:41;;;;;;;9.00;5.93;;;15.60;75.10;;;;;;4914830;29;20044;-75
2022/10/12 08:44:20;;;;;;;15.50;8.23;;;15.60;75.30;;;;;;4926605;28;20039;-75
2022/10/12 08:46:47;;;;;;;10.13;6.78;;;15.60;74.50;;;;;;4973792;28;20234;-77
2022/10/12 08:49:24;;;;;;;14.98;7.80;;;15.50;75.10;;;;;;5001405;28;20038;-75
2022/10/12 08:51:53;;;;;;;11.07;7.13;;;15.60;75.20;;;;;;5049840;28;20032;-76
2022/10/12 08:54:21;;;;;;;12.60;7.25;;;15.70;75.50;;;;;;5049720;28;20026;-75
2022/10/12 08:56:47;;;;;;;12.38;7.95;;;15.70;75.00;;;;;;5049618;28;20061;-76
2022/10/12 08:59:17;;;;;;;13.55;7.35;;;15.70;74.70;;;;;;5049651;28;20030;-76
2022/10/12 09:01:51;;;;;;;13.35;7.43;;;15.70;75.10;;;;;;5049339;28;20033;-75
2022/10/12 09:04:32;;;;;;;14.93;7.40;;;15.80;74.70;;;;;;5032248;28;20022;-75
2022/10/12 09:07:08;;;;;;;12.27;7.70;;;15.90;74.50;;;;;;5028860;28;20029;-77
2022/10/12 09:09:51;;;;;;;12.98;8.10;;;16.00;74.60;;;;;;5031022;28;20025;-76
2022/10/12 09:12:22;;;;;;;14.77;7.53;;;16.00;73.80;;;;;;5028957;28;20083;-76
2022/10/12 09:14:51;;;;;;;16.52;8.45;;;16.00;73.90;;;;;;5031020;28;20048;-76
2022/10/12 09:17:29;;;;;;;11.98;7.00;;;16.10;73.70;;;;;;5040045;28;20509;-77
2022/10/12 09:20:09;;;;;;;15.70;7.47;;;16.00;73.20;;;;;;5032445;28;20350;-76
2022/10/12 09:22:35;;;;;;;15.95;8.75;;;16.10;73.80;;;;;;5032253;28;20061;-77
2022/10/12 09:25:02;;;;;;;13.15;7.78;;;16.00;74.00;;;;;;5032288;28;20072;-77
2022/10/12 09:27:30;;;;;;;14.30;9.25;;;16.00;74.00;;;;;;5032617;28;20108;-77
2022/10/12 09:30:00;;;;;;;15.65;9.20;;;16.00;74.40;;;;;;5031563;28;20418;-77
2022/10/12 09:32:43;;;;;;;12.75;7.47;;;16.00;74.40;;;;;;5049059;28;20031;-77
2022/10/12 09:35:12;;;;;;;13.88;9.07;;;16.00;74.40;;;;;;5033982;28;20029;-75
2022/10/12 09:37:38;;;;;;;10.77;7.97;;;16.10;74.10;;;;;;5032447;28;20116;-76
2022/10/12 09:40:05;;;;;;;9.93;6.60;;;16.20;74.00;;;;;;5032208;28;20017;-77
2022/10/12 09:42:32;;;;;;;13.30;7.05;;;16.30;73.60;;;;;;5031737;28;20465;-76
2022/10/12 09:45:10;;;;;;;13.98;7.55;;;16.30;72.80;;;;;;5032130;28;20026;-76
2022/10/12 09:47:36;;;;;;;12.82;6.93;;;16.40;72.90;;;;;;5031858;28;20029;-77
2022/10/12 09:50:04;;;;;;;16.05;9.93;;;16.40;72.80;;;;;;5032230;28;20028;-77
2022/10/12 09:52:43;;;;;;;12.05;7.20;;;16.40;72.90;;;;;;5031980;28;20018;-77
2022/10/12 09:55:13;;;;;;;11.57;6.75;;;16.40;72.70;;;;;;5032181;28;20068;-77
2022/10/12 09:57:42;;;;;;;9.55;5.38;;;16.30;73.40;;;;;;5032214;28;20037;-78
2022/10/12 10:00:37;;;;;;;10.85;5.80;;;16.30;73.60;;;;;;5031408;28;20036;-77
2022/10/12 10:03:03;;;;;;;8.15;5.38;;;16.50;74.20;;;;;;5015136;28;20558;-77
2022/10/12 10:05:35;;;;;;;10.27;5.70;;;16.50;72.10;;;;;;5031422;28;20120;-77
2022/10/12 10:08:18;;;;;;;14.73;8.27;;;16.50;71.90;;;;;;5031404;28;20072;-77
2022/10/12 10:10:54;;;;;;;8.68;5.55;;;16.40;72.90;;;;;;5031653;28;20029;-79
2022/10/12 10:13:22;;;;;;;8.63;5.25;;;16.30;72.60;;;;;;5031344;28;20481;-77
2022/10/12 10:16:03;;;;;;;9.13;4.70;;;16.20;72.50;;;;;;5032643;28;20033;-77
2022/10/12 10:18:34;;;;;;;10.77;4.57;;;16.20;73.70;;;;;;5031768;28;20032;-75
2022/10/12 10:21:03;;;;;;;8.02;3.97;;;16.40;72.50;;;;;;5031460;28;20029;-76
2022/10/12 10:23:38;;;;;;;9.45;4.53;;;16.50;72.50;;;;;;5032425;28;20386;-76
2022/10/12 10:26:11;;;;;;;9.73;4.97;;;16.60;72.70;;;;;;5029587;28;20111;-77
2022/10/12 10:28:44;;;;;;;6.85;4.75;;;16.70;71.80;;;;;;5031423;28;20096;-77
2022/10/12 10:31:12;;;;;;;8.73;4.95;;;16.70;71.70;;;;;;5029761;28;20036;-77
2022/10/12 10:33:39;;;;;;;7.88;4.40;;;16.80;71.70;;;;;;5031570;28;20032;-76
2022/10/12 10:36:23;;;;;;;7.13;4.28;;;16.90;71.40;;;;;;5032145;28;20033;-77
2022/10/12 10:39:01;;;;;;;5.65;3.70;;;17.00;71.30;;;;;;5031993;28;20025;-78
2022/10/12 10:41:34;;;;;;;12.05;5.07;;;17.10;70.80;;;;;;5046946;28;20030;-77
2022/10/12 10:44:00;;;;;;;11.18;5.18;;;17.10;70.20;;;;;;5047592;28;20021;-78
2022/10/12 10:46:29;;;;;;;11.30;5.45;;;17.20;70.30;;;;;;5047574;28;20029;-76
2022/10/12 10:49:00;;;;;;;14.05;6.10;;;17.20;69.60;;;;;;5047797;28;20377;-75
2022/10/12 10:51:47;;;;;;;9.52;5.68;;;17.10;69.30;;;;;;5047704;28;20022;-77
2022/10/12 10:54:30;;;;;;;11.52;5.95;;;17.00;69.70;;;;;;5047292;28;20061;-75
2022/10/12 10:57:03;;;;;;;11.48;5.70;;;17.00;69.60;;;;;;5047735;28;20370;-75
2022/10/12 10:59:34;;;;;;;9.50;5.88;;;17.10;69.80;;;;;;5047703;28;20138;-75
2022/10/12 11:02:10;;;;;;;9.00;5.05;;;17.20;69.70;;;;;;5047386;28;20398;-74
2022/10/12 11:04:41;;;;;;;7.63;4.40;;;17.30;69.30;;;;;;5047715;28;20104;-74
2022/10/12 11:07:17;;;;;;;8.15;4.68;;;17.50;69.30;;;;;;5047435;28;20512;-75
2022/10/12 11:09:46;;;;;;;11.40;4.88;;;17.60;69.10;;;;;;5031150;28;20057;-75
2022/10/12 11:12:32;;;;;;;6.90;4.22;;;17.80;68.40;;;;;;5047890;28;20394;-75
2022/10/12 11:15:07;;;;;;;11.75;4.60;;;17.90;68.20;;;;;;5047526;28;20029;-76
2022/10/12 11:17:36;;;;;;;7.90;3.78;;;18.10;68.00;;;;;;5047525;28;20080;-76
2022/10/12 11:20:17;;;;;;;8.70;4.53;;;18.40;67.10;;;;;;5047464;28;20025;-76
2022/10/12 11:23:09;;;;;;;8.30;3.88;;;18.40;65.40;;;;;;5047251;28;20045;-75
2022/10/12 11:26:00;;;;;;;9.82;4.20;;;18.90;65.00;;;;;;5047791;28;20083;-75
2022/10/12 11:28:29;;;;;;;7.95;4.07;;;19.50;62.70;;;;;;5046984;28;20516;-75
2022/10/12 11:30:55;;;;;;;7.97;4.72;;;20.30;60.20;;;;;;5047271;28;20116;-76
2022/10/12 11:33:23;;;;;;;7.25;3.72;;;20.90;56.30;;;;;;5047553;28;20025;-75
2022/10/12 11:35:53;;;;;;;6.32;3.63;;;21.50;54.80;;;;;;5030978;28;20450;-75
2022/10/12 11:38:39;;;;;;;8.52;3.58;;;21.90;52.60;;;;;;5030836;28;20021;-76
2022/10/12 11:41:08;;;;;;;7.95;3.13;;;22.40;51.00;;;;;;5047246;28;20037;-76
2022/10/12 11:43:46;;;;;;;9.23;3.70;;;22.60;49.50;;;;;;5030892;28;20025;-76
2022/10/12 11:46:15;;;;;;;8.73;4.03;;;22.90;47.60;;;;;;5043238;28;20056;-77
2022/10/12 11:48:53;;;;;;;9.57;4.30;;;23.20;47.00;;;;;;5031052;28;20049;-74
2022/10/12 11:51:18;;;;;;;6.93;4.00;;;23.40;44.40;;;;;;5030818;28;20025;-74
2022/10/12 11:53:56;;;;;;;10.95;4.57;;;23.00;45.30;;;;;;5031863;28;20117;-74
2022/10/12 11:56:47;;;;;;;9.32;3.88;;;22.60;46.60;;;;;;5033958;28;20095;-74
2022/10/12 11:59:37;;;;;;;8.55;3.85;;;22.70;47.20;;;;;;5034416;28;20029;-74
2022/10/12 12:02:27;;;;;;;6.28;3.25;;;23.10;47.00;;;;;;5034157;28;20037;-74
2022/10/12 12:04:53;;;;;;;9.05;3.65;;;23.40;46.30;;;;;;5030884;28;20033;-74
2022/10/12 12:07:22;;;;;;;8.05;4.03;;;23.40;45.90;;;;;;5033994;28;20370;-74
2022/10/12 12:09:48;;;;;;;6.25;3.35;;;23.60;45.00;;;;;;5033974;28;20469;-77
2022/10/12 12:12:19;;;;;;;16.38;6.40;;;23.80;44.30;;;;;;5035289;28;20037;-74
2022/10/12 12:14:54;;;;;;;6.20;3.90;;;24.10;43.90;;;;;;5034323;28;20022;-75
2022/10/12 12:17:25;;;;;;;6.35;3.30;;;24.20;43.70;;;;;;5033946;28;20029;-75
2022/10/12 12:20:21;;;;;;;8.68;3.50;;;24.30;42.00;;;;;;5034983;28;20033;-74
2022/10/12 12:22:50;;;;;;;10.60;3.63;;;24.20;43.10;;;;;;5034929;28;20029;-74
2022/10/12 12:25:19;;;;;;;11.77;3.78;;;23.90;42.60;;;;;;5034012;28;20466;-76
2022/10/12 12:27:54;;;;;;;7.80;3.28;;;23.80;43.20;;;;;;5033588;28;20037;-76
2022/10/12 12:30:23;;;;;;;7.53;3.33;;;24.00;43.70;;;;;;5033571;28;20032;-76
2022/10/12 12:32:58;;;;;;;9.93;3.25;;;24.40;43.10;;;;;;5033506;28;20117;-76
2022/10/12 12:35:37;;;;;;;7.00;3.15;;;24.70;40.60;;;;;;5033271;28;20390;-76
2022/10/12 12:38:12;;;;;;;10.63;3.47;;;24.80;40.30;;;;;;5034908;28;20427;-76
2022/10/12 12:40:39;;;;;;;9.85;3.33;;;24.60;40.80;;;;;;5033189;28;20083;-76
2022/10/12 12:43:30;;;;;;;7.88;3.40;;;24.80;41.70;;;;;;5041173;28;20025;-76
2022/10/12 12:46:03;;;;;;;8.40;3.30;;;24.80;40.40;;;;;;5034149;28;20116;-73
2022/10/12 12:48:38;;;;;;;7.30;3.10;;;24.80;40.30;;;;;;5033722;28;20378;-76
2022/10/12 12:51:08;;;;;;;8.82;3.20;;;25.00;40.30;;;;;;5033357;28;20041;-76
2022/10/12 12:53:45;;;;;;;8.95;3.47;;;25.30;39.70;;;;;;5033541;28;20029;-76
2022/10/12 12:56:40;;;;;;;6.50;3.30;;;25.60;39.30;;;;;;5033220;28;20025;-76
2022/10/12 12:59:24;;;;;;;4.50;2.78;;;25.80;38.80;;;;;;5033357;28;20103;-76
2022/10/12 13:01:49;;;;;;;8.07;3.45;;;26.00;39.20;;;;;;5033194;28;20042;-77
2022/10/12 13:04:38;;;;;;;10.98;3.90;;;26.40;37.60;;;;;;5032934;28;20628;-77
2022/10/12 13:07:19;;;;;;;8.05;2.95;;;26.40;37.10;;;;;;5033003;28;20025;-77
2022/10/12 13:10:03;;;;;;;10.52;2.92;;;26.70;37.20;;;;;;5049549;28;20509;-78